Time;durP1;ratioP1;P1;durP2;ratioP2;P2;SDS_P1;SDS_P2;PMS_P1;PMS_P2;Temp;Humidity;BMP_temperature;BMP_pressure;BME280_temperature;BME280_humidity;BME280_pressure;Samples;Min_cycle;Max_cycle;Signal;HPM_P1;HPM_P2
2022/10/26 00:01:20;;;;;;;30.33;4.30;;;;;;;;;;6239983;23;20042;-65
2022/10/26 00:03:47;;;;;;;34.30;4.82;;;;;;;;;;6238915;23;20016;-57
2022/10/26 00:06:27;;;;;;;34.05;4.55;;;;;;;;;;6216077;23;20020;-58
2022/10/26 00:08:55;;;;;;;39.75;5.03;;;;;;;;;;6239445;23;20020;-58
2022/10/26 00:11:29;;;;;;;29.13;4.47;;;;;;;;;;6239029;23;20474;-58
2022/10/26 00:13:56;;;;;;;23.92;3.90;;;;;;;;;;6240118;23;20030;-58
2022/10/26 00:16:30;;;;;;;32.03;4.72;;;;;;;;;;6239359;23;20119;-59
2022/10/26 00:18:57;;;;;;;24.38;4.60;;;;;;;;;;6238880;23;20781;-50
2022/10/26 00:21:24;;;;;;;28.73;3.78;;;;;;;;;;6240643;23;20477;-63
2022/10/26 00:24:11;;;;;;;28.48;4.68;;;;;;;;;;6238202;23;20020;-63
2022/10/26 00:26:45;;;;;;;22.80;3.80;;;;;;;;;;6239442;23;20130;-63
2022/10/26 00:29:19;;;;;;;35.08;4.97;;;;;;;;;;6229051;23;20020;-63
2022/10/26 00:31:46;;;;;;;26.55;3.67;;;;;;;;;;6239672;23;20024;-64
2022/10/26 00:34:13;;;;;;;23.88;4.38;;;;;;;;;;6239859;23;20035;-64
2022/10/26 00:36:47;;;;;;;28.23;4.03;;;;;;;;;;6240994;23;20020;-58
2022/10/26 00:39:14;;;;;;;27.30;3.90;;;;;;;;;;6239660;23;20398;-61
2022/10/26 00:41:48;;;;;;;27.15;4.50;;;;;;;;;;6240502;23;20488;-58
2022/10/26 00:44:34;;;;;;;20.65;3.78;;;;;;;;;;6239949;23;20473;-59
2022/10/26 00:47:12;;;;;;;31.70;4.40;;;;;;;;;;6239027;23;20102;-58
2022/10/26 00:49:39;;;;;;;37.10;4.68;;;;;;;;;;6239305;23;20020;-58
2022/10/26 00:52:08;;;;;;;14.43;3.53;;;;;;;;;;6238278;23;20823;-58
2022/10/26 00:54:42;;;;;;;23.42;4.07;;;;;;;;;;6237947;23;20034;-58
2022/10/26 00:57:11;;;;;;;27.88;4.65;;;;;;;;;;6239551;23;20019;-54
2022/10/26 00:59:45;;;;;;;33.35;4.45;;;;;;;;;;6239556;23;20024;-60
2022/10/26 01:02:12;;;;;;;;;;;;;;;;;;6239737;23;20358;-60
2022/10/26 01:04:40;;;;;;;24.38;4.05;;;;;;;;;;6239402;23;20359;-59
2022/10/26 01:07:14;;;;;;;29.25;3.92;;;;;;;;;;6227710;23;20331;-60
2022/10/26 01:09:41;;;;;;;21.73;3.10;;;;;;;;;;6236419;23;20020;-60
2022/10/26 01:12:15;;;;;;;20.77;3.58;;;;;;;;;;6239180;23;20480;-59
2022/10/26 01:14:42;;;;;;;27.00;4.28;;;;;;;;;;6238301;23;20339;-51
2022/10/26 01:17:28;;;;;;;23.02;3.83;;;;;;;;;;6238696;23;20479;-64
2022/10/26 01:20:20;;;;;;;34.03;4.95;;;;;;;;;;6239266;23;20099;-63
2022/10/26 01:22:56;;;;;;;24.17;3.95;;;;;;;;;;6239182;22;20024;-63
2022/10/26 01:25:36;;;;;;;37.40;3.35;;;;;;;;;;6207907;23;20099;-63
2022/10/26 01:28:08;;;;;;;20.55;3.25;;;;;;;;;;6208441;23;20111;-63
2022/10/26 01:30:42;;;;;;;;;;;;;;;;;;6209229;23;20096;-64
2022/10/26 01:33:14;;;;;;;26.00;3.63;;;;;;;;;;6209177;23;19995;-63
2022/10/26 01:36:00;;;;;;;20.25;3.20;;;;;;;;;;6207469;23;20063;-58
2022/10/26 01:38:42;;;;;;;18.73;3.28;;;;;;;;;;6209185;23;20108;-56
2022/10/26 01:41:19;;;;;;;24.38;4.30;;;;;;;;;;6208735;23;20025;-58
2022/10/26 01:43:50;;;;;;;24.08;3.80;;;;;;;;;;6207524;23;20027;-58
2022/10/26 01:46:25;;;;;;;26.10;3.20;;;;;;;;;;6208204;23;20027;-58
2022/10/26 01:48:55;;;;;;;27.65;3.38;;;;;;;;;;6209303;23;20025;-59
2022/10/26 01:51:23;;;;;;;21.92;3.83;;;;;;;;;;6207229;23;20021;-59
2022/10/26 01:53:57;;;;;;;26.00;3.50;;;;;;;;;;6208135;23;20035;-63
2022/10/26 01:56:24;;;;;;;;;;;;;;;;;;6209687;23;20112;-57
2022/10/26 01:59:03;;;;;;;26.00;3.53;;;;;;;;;;6208919;23;20243;-59
2022/10/26 02:01:43;;;;;;;25.85;3.70;;;;;;;;;;6207482;23;20099;-57
2022/10/26 02:04:17;;;;;;;22.83;3.00;;;;;;;;;;6208776;23;20667;-59
2022/10/26 02:06:53;;;;;;;21.63;3.63;;;;;;;;;;6209108;23;20478;-58
2022/10/26 02:09:35;;;;;;;29.65;3.70;;;;;;;;;;6207418;23;20021;-58
2022/10/26 02:12:05;;;;;;;26.15;3.20;;;;;;;;;;6209184;23;20120;-60
2022/10/26 02:14:45;;;;;;;23.98;4.55;;;;;;;;;;6207214;23;20028;-64
2022/10/26 02:17:28;;;;;;;22.05;3.75;;;;;;;;;;6206068;23;20096;-60
2022/10/26 02:20:06;;;;;;;23.38;3.88;;;;;;;;;;6209089;23;20051;-60
2022/10/26 02:22:38;;;;;;;20.15;3.55;;;;;;;;;;6208362;23;20035;-60
2022/10/26 02:25:22;;;;;;;23.65;3.40;;;;;;;;;;6236659;23;20034;-60
2022/10/26 02:27:51;;;;;;;29.90;4.18;;;;;;;;;;6236847;23;20095;-60
2022/10/26 02:30:25;;;;;;;23.60;3.03;;;;;;;;;;6238602;23;20024;-60
2022/10/26 02:32:54;;;;;;;25.90;3.45;;;;;;;;;;6238024;23;20084;-64
2022/10/26 02:35:29;;;;;;;20.88;3.88;;;;;;;;;;6237917;23;20403;-57
2022/10/26 02:38:05;;;;;;;30.67;4.22;;;;;;;;;;6213328;23;20027;-56
2022/10/26 02:40:39;;;;;;;18.80;3.25;;;;;;;;;;6239191;23;20091;-58
2022/10/26 02:43:10;;;;;;;25.45;3.42;;;;;;;;;;6238889;23;20028;-58
2022/10/26 02:45:46;;;;;;;19.13;3.53;;;;;;;;;;6237882;23;20074;-58
2022/10/26 02:48:14;;;;;;;29.08;3.85;;;;;;;;;;6238675;23;20078;-58
2022/10/26 02:50:46;;;;;;;26.75;3.78;;;;;;;;;;6239610;23;20125;-60
2022/10/26 02:53:25;;;;;;;21.70;3.38;;;;;;;;;;6212517;23;20023;-53
2022/10/26 02:55:52;;;;;;;25.08;3.47;;;;;;;;;;6238882;23;20020;-55
2022/10/26 02:58:24;;;;;;;23.63;3.63;;;;;;;;;;6239346;23;20023;-53
2022/10/26 03:00:59;;;;;;;31.50;3.42;;;;;;;;;;6237775;23;20430;-51
2022/10/26 03:03:26;;;;;;;20.50;3.28;;;;;;;;;;6237390;23;20098;-51
2022/10/26 03:06:00;;;;;;;27.05;4.38;;;;;;;;;;6237833;23;20038;-51
2022/10/26 03:08:27;;;;;;;24.92;3.63;;;;;;;;;;6238466;23;20027;-56
2022/10/26 03:11:01;;;;;;;21.65;2.83;;;;;;;;;;6237731;23;20091;-51
2022/10/26 03:13:28;;;;;;;28.23;3.33;;;;;;;;;;6238030;23;20035;-54
2022/10/26 03:15:56;;;;;;;24.90;3.53;;;;;;;;;;6236792;23;20401;-57
2022/10/26 03:18:30;;;;;;;20.90;2.80;;;;;;;;;;6238655;23;20026;-58
2022/10/26 03:20:57;;;;;;;17.15;3.47;;;;;;;;;;6236263;23;20078;-58
2022/10/26 03:23:38;;;;;;;20.75;3.05;;;;;;;;;;6237761;22;20107;-55
2022/10/26 03:26:12;;;;;;;22.52;3.53;;;;;;;;;;6240575;23;20030;-58
2022/10/26 03:28:39;;;;;;;25.63;3.42;;;;;;;;;;6241030;23;20591;-59
2022/10/26 03:31:13;;;;;;;18.45;2.95;;;;;;;;;;6240273;23;20507;-60
2022/10/26 03:33:40;;;;;;;24.45;3.63;;;;;;;;;;6241270;23;20028;-59
2022/10/26 03:36:08;;;;;;;16.98;3.08;;;;;;;;;;6240685;23;20024;-60
2022/10/26 03:38:42;;;;;;;22.77;3.22;;;;;;;;;;6240365;23;20024;-61
2022/10/26 03:41:09;;;;;;;16.88;3.17;;;;;;;;;;6241979;23;20054;-60
2022/10/26 03:43:43;;;;;;;22.63;3.63;;;;;;;;;;6240751;23;20024;-60
2022/10/26 03:46:10;;;;;;;20.95;3.30;;;;;;;;;;6240447;23;20021;-61
2022/10/26 03:48:37;;;;;;;29.48;3.58;;;;;;;;;;6240927;23;20020;-59
2022/10/26 03:51:11;;;;;;;22.75;3.75;;;;;;;;;;6240543;23;20016;-50
2022/10/26 03:53:38;;;;;;;26.20;3.00;;;;;;;;;;6240215;23;20108;-50
2022/10/26 03:56:12;;;;;;;20.50;3.45;;;;;;;;;;6240611;23;20027;-53
2022/10/26 03:58:39;;;;;;;17.17;3.38;;;;;;;;;;6240252;23;20039;-50
2022/10/26 04:01:06;;;;;;;31.35;3.67;;;;;;;;;;6238740;23;20343;-51
2022/10/26 04:03:40;;;;;;;20.23;3.10;;;;;;;;;;6238783;23;20058;-52
2022/10/26 04:06:07;;;;;;;26.50;3.40;;;;;;;;;;6239843;23;20024;-52
2022/10/26 04:08:41;;;;;;;28.73;3.88;;;;;;;;;;6240919;23;20016;-57
2022/10/26 04:11:08;;;;;;;25.23;3.70;;;;;;;;;;6241892;23;20604;-48
2022/10/26 04:13:35;;;;;;;29.65;3.45;;;;;;;;;;6239218;23;20099;-48
2022/10/26 04:16:09;;;;;;;26.00;3.90;;;;;;;;;;6241078;23;20027;-50
2022/10/26 04:18:36;;;;;;;27.05;3.60;;;;;;;;;;6240699;23;20103;-47
2022/10/26 04:21:10;;;;;;;28.20;4.15;;;;;;;;;;6237186;23;20031;-48
2022/10/26 04:23:50;;;;;;;24.23;3.30;;;;;;;;;;6238687;23;20023;-47
2022/10/26 04:26:24;;;;;;;24.08;3.28;;;;;;;;;;6240807;23;20457;-59
2022/10/26 04:28:51;;;;;;;21.23;3.30;;;;;;;;;;6239086;23;20095;-60
2022/10/26 04:31:18;;;;;;;27.77;4.05;;;;;;;;;;6239872;23;20038;-60
2022/10/26 04:33:52;;;;;;;23.98;3.55;;;;;;;;;;6239507;23;20024;-60
2022/10/26 04:36:19;;;;;;;27.38;4.43;;;;;;;;;;6239422;23;20032;-60
2022/10/26 04:38:48;;;;;;;24.77;4.03;;;;;;;;;;6240079;23;20020;-60
2022/10/26 04:41:22;;;;;;;31.77;4.30;;;;;;;;;;6240777;23;20020;-61
2022/10/26 04:43:49;;;;;;;26.00;4.03;;;;;;;;;;6236777;23;20026;-60
2022/10/26 04:46:23;;;;;;;21.17;3.30;;;;;;;;;;6238847;23;20030;-57
2022/10/26 04:48:50;;;;;;;20.40;3.35;;;;;;;;;;6240255;23;20461;-57
2022/10/26 04:51:17;;;;;;;25.70;3.78;;;;;;;;;;6213671;23;20305;-59
2022/10/26 04:53:53;;;;;;;16.88;3.85;;;;;;;;;;6236871;23;20016;-58
2022/10/26 04:56:20;;;;;;;20.48;2.78;;;;;;;;;;6238025;23;20027;-59
2022/10/26 04:58:54;;;;;;;31.83;3.30;;;;;;;;;;6233581;23;20060;-59
2022/10/26 05:01:22;;;;;;;19.75;3.15;;;;;;;;;;6237610;23;20099;-61
2022/10/26 05:03:49;;;;;;;24.45;3.47;;;;;;;;;;6237050;23;20027;-64
2022/10/26 05:06:23;;;;;;;28.85;3.55;;;;;;;;;;6237576;23;20024;-60
2022/10/26 05:08:50;;;;;;;16.88;3.58;;;;;;;;;;6240555;23;20095;-60
2022/10/26 05:11:24;;;;;;;21.23;3.03;;;;;;;;;;6239962;23;20020;-60
2022/10/26 05:13:51;;;;;;;27.52;3.47;;;;;;;;;;6239784;23;20454;-60
2022/10/26 05:16:18;;;;;;;30.67;4.10;;;;;;;;;;6240230;23;20103;-59
2022/10/26 05:18:52;;;;;;;18.40;2.97;;;;;;;;;;6240959;23;20020;-60
2022/10/26 05:21:19;;;;;;;20.83;3.58;;;;;;;;;;6239150;23;20020;-60
2022/10/26 05:24:06;;;;;;;13.38;2.90;;;;;;;;;;6238260;23;20016;-60
2022/10/26 05:26:40;;;;;;;15.27;2.88;;;;;;;;;;6240208;23;20353;-49
2022/10/26 05:29:14;;;;;;;17.38;2.92;;;;;;;;;;6226872;23;20462;-51
2022/10/26 05:31:41;;;;;;;18.92;3.15;;;;;;;;;;6240255;23;20365;-49
2022/10/26 05:34:15;;;;;;;13.80;2.75;;;;;;;;;;6239795;23;20039;-50
2022/10/26 05:36:42;;;;;;;16.05;3.72;;;;;;;;;;6238735;23;20031;-53
2022/10/26 05:39:10;;;;;;;14.90;3.72;;;;;;;;;;6240281;23;20099;-51
2022/10/26 05:41:44;;;;;;;19.77;4.43;;;;;;;;;;6240139;23;20473;-58
2022/10/26 05:44:11;;;;;;;22.75;4.18;;;;;;;;;;6239508;23;20026;-52
2022/10/26 05:46:46;;;;;;;17.50;3.22;;;;;;;;;;6239223;23;20474;-64
2022/10/26 05:49:14;;;;;;;15.98;3.33;;;;;;;;;;6239567;23;20020;-64
2022/10/26 05:51:41;;;;;;;28.20;4.25;;;;;;;;;;6239404;23;20020;-64
2022/10/26 05:54:15;;;;;;;16.25;2.50;;;;;;;;;;6238856;23;20051;-64
2022/10/26 05:56:42;;;;;;;28.45;3.97;;;;;;;;;;6239784;23;20024;-64
2022/10/26 05:59:16;;;;;;;25.15;3.88;;;;;;;;;;6227382;23;20016;-64
2022/10/26 06:01:43;;;;;;;25.08;3.35;;;;;;;;;;6239702;23;20020;-59
2022/10/26 06:04:30;;;;;;;20.33;3.33;;;;;;;;;;6240401;23;20016;-59
2022/10/26 06:07:09;;;;;;;22.65;3.60;;;;;;;;;;6238091;23;20020;-58
2022/10/26 06:09:36;;;;;;;33.38;3.60;;;;;;;;;;6239964;23;20026;-59
2022/10/26 06:12:10;;;;;;;19.75;3.60;;;;;;;;;;6240154;23;20329;-59
2022/10/26 06:14:42;;;;;;;30.60;4.75;;;;;;;;;;6237800;23;20027;-59
2022/10/26 06:17:09;;;;;;;;;;;;;;;;;;6239498;23;20095;-57
2022/10/26 06:20:01;;;;;;;15.60;2.85;;;;;;;;;;6239549;23;19915;-52
2022/10/26 06:22:37;;;;;;;19.52;3.63;;;;;;;;;;6239979;23;20757;-51
2022/10/26 06:25:31;;;;;;;22.23;3.53;;;;;;;;;;6238521;23;20016;-58
2022/10/26 06:28:04;;;;;;;24.52;3.33;;;;;;;;;;6237472;23;20469;-56
2022/10/26 06:30:39;;;;;;;16.55;3.60;;;;;;;;;;6238502;23;20030;-59
2022/10/26 06:33:09;;;;;;;24.60;3.20;;;;;;;;;;6239617;23;20028;-58
2022/10/26 06:35:55;;;;;;;;;;;;;;;;;;6239625;23;20051;-57
2022/10/26 06:38:22;;;;;;;23.63;3.78;;;;;;;;;;6238855;23;20351;-49
2022/10/26 06:41:03;;;;;;;16.60;3.17;;;;;;;;;;6239482;23;20027;-60
2022/10/26 06:43:31;;;;;;;28.27;4.00;;;;;;;;;;6211538;23;20399;-64
2022/10/26 06:46:05;;;;;;;21.48;3.58;;;;;;;;;;6239435;23;20099;-64
2022/10/26 06:48:51;;;;;;;26.05;3.97;;;;;;;;;;6240765;23;20027;-64
2022/10/26 06:51:27;;;;;;;24.38;3.35;;;;;;;;;;6238436;23;20180;-64
2022/10/26 06:53:54;;;;;;;22.33;3.20;;;;;;;;;;6239955;23;20020;-64
2022/10/26 06:56:23;;;;;;;21.45;3.35;;;;;;;;;;6239714;23;20507;-64
2022/10/26 06:58:59;;;;;;;27.30;3.53;;;;;;;;;;6240417;23;20052;-60
2022/10/26 07:01:32;;;;;;;21.05;3.38;;;;;;;;;;6241037;23;20020;-60
2022/10/26 07:04:06;;;;;;;24.95;3.42;;;;;;;;;;6241660;23;20409;-60
2022/10/26 07:06:33;;;;;;;27.33;3.92;;;;;;;;;;6241052;23;20024;-60
2022/10/26 07:09:14;;;;;;;17.95;2.88;;;;;;;;;;6242620;23;20020;-60
2022/10/26 07:11:41;;;;;;;24.35;3.10;;;;;;;;;;6240753;23;20020;-60
2022/10/26 07:14:15;;;;;;;19.63;2.60;;;;;;;;;;6228911;23;20100;-61
2022/10/26 07:16:42;;;;;;;24.58;3.05;;;;;;;;;;6240348;23;20038;-59
2022/10/26 07:19:09;;;;;;;22.08;4.13;;;;;;;;;;6240945;23;20016;-60
2022/10/26 07:21:43;;;;;;;17.08;2.60;;;;;;;;;;6241937;23;20027;-64
2022/10/26 07:24:23;;;;;;;15.95;3.72;;;;;;;;;;6240861;23;20024;-65
2022/10/26 07:26:58;;;;;;;21.67;2.95;;;;;;;;;;6240757;23;20024;-65
2022/10/26 07:29:26;;;;;;;17.38;2.47;;;;;;;;;;6241103;23;20024;-65
2022/10/26 07:31:53;;;;;;;20.50;2.70;;;;;;;;;;6241560;23;20557;-64
2022/10/26 07:34:27;;;;;;;20.65;2.80;;;;;;;;;;6240590;23;20048;-64
2022/10/26 07:36:54;;;;;;;12.90;3.03;;;;;;;;;;6241390;23;20020;-59
2022/10/26 07:39:31;;;;;;;14.38;2.63;;;;;;;;;;6241872;23;20099;-64
2022/10/26 07:41:58;;;;;;;15.45;2.63;;;;;;;;;;6240911;23;20343;-63
2022/10/26 07:44:25;;;;;;;23.15;3.47;;;;;;;;;;6239516;23;20016;-64
2022/10/26 07:46:59;;;;;;;16.42;2.50;;;;;;;;;;6239834;23;20027;-64
2022/10/26 07:49:26;;;;;;;18.73;3.38;;;;;;;;;;6241063;23;20048;-64
2022/10/26 07:52:00;;;;;;;24.55;3.28;;;;;;;;;;6240903;23;20422;-64
2022/10/26 07:54:27;;;;;;;17.83;3.22;;;;;;;;;;6240220;23;20031;-64
2022/10/26 07:56:55;;;;;;;17.35;2.67;;;;;;;;;;6240434;23;20024;-59
2022/10/26 07:59:28;;;;;;;14.70;2.90;;;;;;;;;;6241135;23;20016;-65
2022/10/26 08:01:56;;;;;;;13.05;2.35;;;;;;;;;;6240196;23;20028;-64
2022/10/26 08:04:29;;;;;;;12.52;2.92;;;;;;;;;;6240616;23;20016;-65
2022/10/26 08:06:56;;;;;;;13.02;2.28;;;;;;;;;;6239619;23;20385;-65
2022/10/26 08:09:30;;;;;;;18.58;2.95;;;;;;;;;;6240246;23;20023;-65
2022/10/26 08:11:57;;;;;;;16.30;3.03;;;;;;;;;;6237411;23;20353;-65
2022/10/26 08:14:24;;;;;;;15.30;2.05;;;;;;;;;;6239584;23;20127;-51
2022/10/26 08:16:58;;;;;;;13.35;2.50;;;;;;;;;;6241299;23;20119;-50
2022/10/26 08:19:25;;;;;;;14.23;2.40;;;;;;;;;;6239661;23;20035;-51
2022/10/26 08:21:59;;;;;;;12.50;2.30;;;;;;;;;;6240138;23;20465;-49
2022/10/26 08:24:26;;;;;;;12.50;2.13;;;;;;;;;;6238704;23;20093;-51
2022/10/26 08:27:07;;;;;;;23.13;2.80;;;;;;;;;;6239403;23;20020;-51
2022/10/26 08:29:34;;;;;;;14.38;2.25;;;;;;;;;;6239667;23;20099;-51
2022/10/26 08:32:08;;;;;;;16.88;2.70;;;;;;;;;;6240648;23;20019;-49
2022/10/26 08:34:35;;;;;;;18.38;2.35;;;;;;;;;;6237150;23;20060;-60
2022/10/26 08:37:02;;;;;;;9.07;2.30;;;;;;;;;;6239533;23;20020;-50
2022/10/26 08:39:36;;;;;;;10.93;2.00;;;;;;;;;;6240632;23;20024;-51
2022/10/26 08:42:06;;;;;;;9.68;2.28;;;;;;;;;;6239156;23;20338;-48
2022/10/26 08:44:43;;;;;;;9.18;2.30;;;;;;;;;;6240518;23;20044;-49
2022/10/26 08:47:10;;;;;;;13.70;2.45;;;;;;;;;;6239609;23;20103;-49
2022/10/26 08:49:41;;;;;;;10.90;2.08;;;;;;;;;;6240457;23;20111;-48
2022/10/26 08:52:17;;;;;;;10.68;2.05;;;;;;;;;;6240802;23;20027;-64
2022/10/26 08:54:52;;;;;;;9.23;1.92;;;;;;;;;;6239424;23;20099;-60
2022/10/26 08:57:27;;;;;;;16.13;2.30;;;;;;;;;;6239972;23;20027;-49
2022/10/26 09:00:03;;;;;;;14.85;2.50;;;;;;;;;;6238945;23;20027;-56
2022/10/26 09:02:33;;;;;;;15.15;2.50;;;;;;;;;;6214508;23;20024;-56
2022/10/26 09:05:18;;;;;;;13.40;2.03;;;;;;;;;;6239620;23;20562;-50
2022/10/26 09:07:48;;;;;;;15.15;2.20;;;;;;;;;;6239492;23;20038;-52
2022/10/26 09:10:33;;;;;;;10.85;1.90;;;;;;;;;;6239469;23;20020;-52
2022/10/26 09:13:33;;;;;;;11.45;2.20;;;;;;;;;;6239938;23;20356;-64
2022/10/26 09:16:14;;;;;;;15.45;2.30;;;;;;;;;;6177504;23;20030;-53
2022/10/26 09:18:54;;;;;;;11.90;1.90;;;;;;;;;;6237566;23;20548;-53
2022/10/26 09:21:58;;;;;;;9.98;2.00;;;;;;;;;;6239828;23;20592;-48
2022/10/26 09:24:31;;;;;;;9.40;1.92;;;;;;;;;;6127477;23;20025;-53
2022/10/26 09:27:29;;;;;;;7.82;1.75;;;;;;;;;;6237667;23;20016;-56
2022/10/26 09:29:57;;;;;;;8.68;1.40;;;;;;;;;;6239826;22;20032;-60
2022/10/26 09:32:36;;;;;;;9.82;1.75;;;;;;;;;;6238474;23;20024;-64
2022/10/26 09:35:15;;;;;;;13.90;2.47;;;;;;;;;;6238851;23;20027;-60
2022/10/26 09:38:03;;;;;;;9.80;1.45;;;;;;;;;;6238251;23;20051;-60
2022/10/26 09:40:36;;;;;;;7.10;1.98;;;;;;;;;;6239827;23;20038;-60
2022/10/26 09:43:12;;;;;;;13.27;1.88;;;;;;;;;;6239896;23;20099;-60
2022/10/26 09:45:42;;;;;;;9.13;1.60;;;;;;;;;;6239548;23;20020;-60
2022/10/26 09:48:19;;;;;;;14.23;2.22;;;;;;;;;;6228335;23;20032;-60
2022/10/26 09:50:48;;;;;;;6.72;1.67;;;;;;;;;;6239619;23;20024;-59
2022/10/26 09:53:15;;;;;;;13.52;1.73;;;;;;;;;;6238847;23;20434;-64
2022/10/26 09:55:50;;;;;;;8.32;1.50;;;;;;;;;;6238344;23;20024;-63
2022/10/26 09:58:20;;;;;;;12.50;2.10;;;;;;;;;;6239858;23;20054;-64
2022/10/26 10:00:54;;;;;;;11.17;2.03;;;;;;;;;;6238547;23;20342;-64
2022/10/26 10:03:26;;;;;;;9.82;1.58;;;;;;;;;;6238095;23;20102;-63
2022/10/26 10:06:16;;;;;;;9.73;1.90;;;;;;;;;;6237665;23;20024;-63
2022/10/26 10:08:45;;;;;;;7.82;1.70;;;;;;;;;;6239739;23;20020;-64
2022/10/26 10:11:19;;;;;;;6.88;1.73;;;;;;;;;;6240110;23;20062;-60
2022/10/26 10:13:46;;;;;;;12.85;2.03;;;;;;;;;;6240266;23;20050;-60
2022/10/26 10:16:20;;;;;;;7.95;1.73;;;;;;;;;;6239192;23;20028;-60
2022/10/26 10:18:55;;;;;;;8.13;1.95;;;;;;;;;;6239330;23;20021;-60
2022/10/26 10:21:54;;;;;;;11.95;1.90;;;;;;;;;;6238994;23;20024;-60
2022/10/26 10:24:29;;;;;;;10.15;1.90;;;;;;;;;;6238583;22;20098;-60
2022/10/26 10:27:16;;;;;;;12.05;2.25;;;;;;;;;;6239321;23;20030;-65
2022/10/26 10:29:44;;;;;;;8.98;1.58;;;;;;;;;;6240122;23;20038;-58
2022/10/26 10:32:31;;;;;;;12.65;2.78;;;;;;;;;;6240068;23;20036;-63
2022/10/26 10:35:21;;;;;;;9.77;1.80;;;;;;;;;;6242067;22;20527;-63
2022/10/26 10:37:55;;;;;;;10.55;1.98;;;;;;;;;;6240538;23;20020;-64
2022/10/26 10:40:24;;;;;;;14.43;1.98;;;;;;;;;;6241006;23;20022;-64
2022/10/26 10:42:52;;;;;;;10.63;1.50;;;;;;;;;;6241393;23;20105;-64
2022/10/26 10:45:28;;;;;;;12.05;2.53;;;;;;;;;;6242611;23;20103;-63
2022/10/26 10:47:59;;;;;;;18.10;1.98;;;;;;;;;;6240656;23;20565;-49
2022/10/26 10:50:33;;;;;;;14.88;2.65;;;;;;;;;;6241379;23;20016;-63
2022/10/26 10:53:13;;;;;;;10.20;2.08;;;;;;;;;;6240857;23;20020;-63
2022/10/26 10:55:56;;;;;;;12.90;1.92;;;;;;;;;;6240646;23;20020;-64
2022/10/26 10:58:29;;;;;;;8.60;2.00;;;;;;;;;;6241063;23;20060;-63
2022/10/26 11:01:03;;;;;;;12.93;2.30;;;;;;;;;;6241525;23;20449;-63
2022/10/26 11:03:33;;;;;;;17.23;2.22;;;;;;;;;;6241552;23;20024;-63
2022/10/26 11:06:18;;;;;;;13.63;2.22;;;;;;;;;;6241123;23;20107;-51
2022/10/26 11:08:45;;;;;;;;;;;;;;;;;;6241769;23;20100;-47
2022/10/26 11:11:25;;;;;;;13.15;1.95;;;;;;;;;;6228251;23;20341;-48
2022/10/26 11:13:55;;;;;;;11.15;2.00;;;;;;;;;;6241074;23;20020;-51
2022/10/26 11:16:32;;;;;;;5.80;1.73;;;;;;;;;;6239642;23;20131;-52
2022/10/26 11:19:18;;;;;;;12.32;2.30;;;;;;;;;;6240851;23;20023;-53
2022/10/26 11:21:53;;;;;;;11.10;1.92;;;;;;;;;;6240755;23;20055;-53
2022/10/26 11:24:23;;;;;;;9.15;1.73;;;;;;;;;;6239787;23;20020;-62
2022/10/26 11:27:10;;;;;;;11.88;2.63;;;;;;;;;;6241297;22;20035;-59
2022/10/26 11:30:00;;;;;;;9.82;2.30;;;;;;;;;;6241006;23;20025;-62
2022/10/26 11:32:37;;;;;;;12.48;2.75;;;;;;;;;;6189598;23;20444;-63
2022/10/26 11:35:11;;;;;;;12.77;2.00;;;;;;;;;;6240822;23;20096;-63
2022/10/26 11:37:51;;;;;;;8.63;1.90;;;;;;;;;;6214879;23;20024;-63
2022/10/26 11:40:28;;;;;;;8.00;1.70;;;;;;;;;;6239942;22;20020;-62
2022/10/26 11:43:12;;;;;;;13.70;2.75;;;;;;;;;;6240553;22;20023;-59
2022/10/26 11:45:44;;;;;;;10.82;1.67;;;;;;;;;;6239703;23;20343;-59
2022/10/26 11:48:18;;;;;;;8.05;1.75;;;;;;;;;;6229133;23;20020;-60
2022/10/26 11:50:48;;;;;;;8.20;1.55;;;;;;;;;;6240300;23;20099;-60
2022/10/26 11:53:52;;;;;;;10.85;1.98;;;;;;;;;;6239197;23;20021;-61
2022/10/26 11:56:27;;;;;;;9.20;1.90;;;;;;;;;;6212904;23;20058;-61
2022/10/26 11:59:01;;;;;;;6.53;1.83;;;;;;;;;;6241257;23;20098;-60
2022/10/26 12:01:34;;;;;;;6.00;1.88;;;;;;;;;;6239845;23;20024;-60
2022/10/26 12:04:07;;;;;;;9.27;1.67;;;;;;;;;;6241154;23;20086;-65
2022/10/26 12:06:35;;;;;;;12.50;1.77;;;;;;;;;;6240312;23;20020;-59
2022/10/26 12:09:12;;;;;;;9.60;2.10;;;;;;;;;;6238915;23;20028;-60
2022/10/26 12:11:46;;;;;;;10.75;1.90;;;;;;;;;;6239930;23;20042;-59
2022/10/26 12:14:16;;;;;;;8.68;1.70;;;;;;;;;;6240864;23;20350;-60
2022/10/26 12:17:26;;;;;;;10.30;1.88;;;;;;;;;;6238635;23;20349;-59
2022/10/26 12:20:11;;;;;;;13.60;2.00;;;;;;;;;;6115499;23;20527;-60
2022/10/26 12:22:45;;;;;;;7.20;2.00;;;;;;;;;;6236470;23;20407;-59
2022/10/26 12:25:20;;;;;;;9.50;1.92;;;;;;;;;;6240667;23;20020;-59
2022/10/26 12:27:57;;;;;;;11.60;1.88;;;;;;;;;;6239770;23;20020;-60
2022/10/26 12:30:35;;;;;;;10.82;1.75;;;;;;;;;;6240654;23;20508;-59
2022/10/26 12:33:28;;;;;;;7.95;2.13;;;;;;;;;;6241374;23;20054;-60
2022/10/26 12:35:55;;;;;;;12.38;1.70;;;;;;;;;;6241370;23;20020;-60
2022/10/26 12:38:32;;;;;;;7.95;1.67;;;;;;;;;;6239431;23;20401;-60
2022/10/26 12:41:06;;;;;;;9.25;1.75;;;;;;;;;;6240416;23;20020;-61
2022/10/26 12:43:40;;;;;;;10.57;2.00;;;;;;;;;;6240696;23;20021;-60
2022/10/26 12:46:14;;;;;;;6.15;1.23;;;;;;;;;;6240893;23;20032;-59
2022/10/26 12:48:48;;;;;;;7.13;1.50;;;;;;;;;;6240129;23;20020;-58
2022/10/26 12:51:21;;;;;;;9.13;1.77;;;;;;;;;;6241085;23;20017;-58
2022/10/26 12:54:04;;;;;;;7.35;1.00;;;;;;;;;;6240311;23;20024;-58
2022/10/26 12:56:34;;;;;;;5.80;1.38;;;;;;;;;;6239416;23;20408;-58
2022/10/26 12:59:18;;;;;;;6.43;1.50;;;;;;;;;;6239381;23;20027;-65
2022/10/26 13:01:52;;;;;;;12.15;1.58;;;;;;;;;;6238642;23;20103;-47
2022/10/26 13:04:45;;;;;;;6.30;1.20;;;;;;;;;;6239689;23;20020;-60
2022/10/26 13:07:16;;;;;;;10.32;1.85;;;;;;;;;;6239526;23;20413;-60
2022/10/26 13:09:56;;;;;;;8.75;1.90;;;;;;;;;;6240031;23;20016;-60
2022/10/26 13:12:24;;;;;;;6.45;1.60;;;;;;;;;;6238461;23;20632;-60
2022/10/26 13:15:06;;;;;;;13.27;1.83;;;;;;;;;;6239052;23;20031;-59
2022/10/26 13:17:33;;;;;;;11.05;1.80;;;;;;;;;;6240228;23;20027;-60
2022/10/26 13:20:17;;;;;;;6.18;1.70;;;;;;;;;;6240055;23;20059;-60
2022/10/26 13:22:46;;;;;;;7.00;1.70;;;;;;;;;;6239749;23;20020;-63
2022/10/26 13:25:29;;;;;;;6.63;1.63;;;;;;;;;;6240840;23;20417;-63
2022/10/26 13:27:58;;;;;;;10.45;1.80;;;;;;;;;;6240064;23;20024;-63
2022/10/26 13:30:37;;;;;;;5.45;1.35;;;;;;;;;;6239311;23;20058;-63
2022/10/26 13:33:07;;;;;;;11.90;1.92;;;;;;;;;;6239433;23;20028;-63
2022/10/26 13:35:42;;;;;;;7.38;1.77;;;;;;;;;;6239107;23;20017;-62
2022/10/26 13:38:11;;;;;;;7.60;1.48;;;;;;;;;;6239338;23;20027;-59
2022/10/26 13:40:39;;;;;;;12.85;1.70;;;;;;;;;;6241171;23;20030;-49
2022/10/26 13:43:20;;;;;;;10.93;2.25;;;;;;;;;;6239418;22;20022;-49
2022/10/26 13:45:52;;;;;;;9.57;1.60;;;;;;;;;;6239723;23;20028;-51
2022/10/26 13:48:36;;;;;;;8.65;2.17;;;;;;;;;;6239487;23;20016;-53
2022/10/26 13:51:09;;;;;;;12.15;2.45;;;;;;;;;;6238814;23;20114;-49
2022/10/26 13:53:49;;;;;;;13.95;2.05;;;;;;;;;;6238839;23;20017;-51
2022/10/26 13:56:22;;;;;;;8.77;1.40;;;;;;;;;;6239987;23;20458;-61
2022/10/26 13:59:01;;;;;;;10.80;1.95;;;;;;;;;;6238656;23;20031;-65
2022/10/26 14:01:29;;;;;;;9.85;2.00;;;;;;;;;;6239742;23;20024;-65
2022/10/26 14:04:22;;;;;;;7.70;1.70;;;;;;;;;;6239345;23;20024;-65
2022/10/26 14:06:50;;;;;;;6.65;1.92;;;;;;;;;;6238168;23;20026;-65
2022/10/26 14:09:23;;;;;;;7.90;1.90;;;;;;;;;;6237100;23;20470;-65
2022/10/26 14:11:54;;;;;;;9.55;1.58;;;;;;;;;;6238996;23;20020;-65
2022/10/26 14:14:30;;;;;;;12.57;1.63;;;;;;;;;;6237991;23;20028;-66
2022/10/26 14:16:58;;;;;;;13.02;2.15;;;;;;;;;;6238267;23;20496;-62
2022/10/26 14:19:36;;;;;;;10.50;1.70;;;;;;;;;;6239429;23;20059;-60
2022/10/26 14:22:03;;;;;;;9.10;1.95;;;;;;;;;;6238284;23;20020;-60
2022/10/26 14:24:31;;;;;;;;;;;;;;;;;;6239860;23;20034;-60
2022/10/26 14:27:22;;;;;;;15.95;1.77;;;;;;;;;;6203058;23;19987;-60
2022/10/26 14:29:50;;;;;;;7.65;1.73;;;;;;;;;;6204924;23;20062;-60
2022/10/26 14:32:44;;;;;;;9.57;1.73;;;;;;;;;;6205904;23;20492;-60
2022/10/26 14:35:21;;;;;;;7.45;1.75;;;;;;;;;;6205725;23;20028;-60
2022/10/26 14:37:59;;;;;;;10.48;2.28;;;;;;;;;;6205189;23;20028;-61
2022/10/26 14:40:34;;;;;;;9.50;2.10;;;;;;;;;;6206879;23;20020;-52
2022/10/26 14:43:04;;;;;;;10.23;1.80;;;;;;;;;;6205398;23;20990;-54
2022/10/26 14:45:38;;;;;;;7.82;2.03;;;;;;;;;;6206680;23;20453;-52
2022/10/26 14:48:23;;;;;;;12.35;1.83;;;;;;;;;;6206257;23;20021;-53
2022/10/26 14:51:06;;;;;;;7.72;2.10;;;;;;;;;;6204595;23;20071;-54
2022/10/26 14:53:35;;;;;;;14.90;2.33;;;;;;;;;;6205699;23;20024;-52
2022/10/26 14:56:28;;;;;;;6.00;1.77;;;;;;;;;;6207541;23;20231;-62
2022/10/26 14:58:56;;;;;;;16.23;2.53;;;;;;;;;;6206337;23;20127;-60
2022/10/26 15:01:31;;;;;;;9.75;2.42;;;;;;;;;;6208672;23;20092;-60
2022/10/26 15:04:06;;;;;;;9.30;2.17;;;;;;;;;;6208588;23;20031;-59
2022/10/26 15:06:42;;;;;;;12.13;1.92;;;;;;;;;;6208766;23;20020;-60
2022/10/26 15:09:28;;;;;;;13.95;2.22;;;;;;;;;;6207498;23;20024;-60
2022/10/26 15:12:03;;;;;;;11.70;2.40;;;;;;;;;;6208906;23;20047;-60
2022/10/26 15:14:31;;;;;;;10.45;2.00;;;;;;;;;;6205171;23;20092;-60
2022/10/26 15:16:58;;;;;;;15.23;2.35;;;;;;;;;;6203970;23;20100;-60